createdAt,value
2019-05-18T00:01:38.958Z,14.10
2019-05-18T00:04:07.492Z,14.10
2019-05-18T00:06:36.018Z,14.00
2019-05-18T00:09:06.564Z,14.00
2019-05-18T00:11:35.211Z,14.10
2019-05-18T00:14:04.073Z,14.10
2019-05-18T00:16:32.805Z,14.10
2019-05-18T00:19:01.509Z,14.10
2019-05-18T00:21:30.103Z,14.10
2019-05-18T00:23:58.678Z,14.00
2019-05-18T00:26:27.360Z,14.00
2019-05-18T00:28:55.946Z,13.90
2019-05-18T00:31:24.651Z,13.90
2019-05-18T00:33:53.386Z,14.00
2019-05-18T00:36:21.996Z,14.00
2019-05-18T00:38:50.616Z,14.00
2019-05-18T00:41:19.295Z,13.90
2019-05-18T00:43:47.995Z,13.90
2019-05-18T00:46:16.635Z,13.90
2019-05-18T00:48:45.210Z,13.90
2019-05-18T00:51:13.888Z,14.00
2019-05-18T00:53:42.541Z,14.00
2019-05-18T00:56:11.361Z,14.00
2019-05-18T00:58:40.001Z,14.00
2019-05-18T01:01:09.058Z,14.00
2019-05-18T01:03:37.617Z,14.00
2019-05-18T01:06:06.299Z,14.00
2019-05-18T01:08:34.858Z,14.00
2019-05-18T01:11:03.487Z,14.00
2019-05-18T01:13:32.157Z,14.00
2019-05-18T01:16:00.940Z,14.00
2019-05-18T01:18:29.650Z,14.00
2019-05-18T01:20:59.164Z,14.00
2019-05-18T01:23:27.780Z,13.90
2019-05-18T01:25:56.399Z,13.90
2019-05-18T01:28:25.121Z,13.90
2019-05-18T01:30:53.693Z,13.80
2019-05-18T01:33:22.283Z,13.90
2019-05-18T01:35:50.883Z,14.00
2019-05-18T01:38:19.549Z,13.90
2019-05-18T01:40:48.263Z,13.90
2019-05-18T01:43:16.870Z,13.90
2019-05-18T01:45:45.603Z,13.90
2019-05-18T01:48:14.751Z,13.80
2019-05-18T01:50:43.523Z,13.90
2019-05-18T01:53:12.205Z,13.90
2019-05-18T01:55:40.816Z,13.90
2019-05-18T01:58:09.475Z,13.80
2019-05-18T02:00:38.141Z,13.80
2019-05-18T02:03:06.888Z,13.80
2019-05-18T02:05:35.473Z,13.80
2019-05-18T02:08:04.130Z,13.70
2019-05-18T02:10:32.752Z,13.70
2019-05-18T02:13:01.391Z,13.70
2019-05-18T02:15:30.204Z,13.70
2019-05-18T02:17:58.859Z,13.70
2019-05-18T02:20:27.417Z,13.70
2019-05-18T02:22:56.114Z,13.70
2019-05-18T02:25:24.899Z,13.60
2019-05-18T02:27:53.622Z,13.60
2019-05-18T02:30:22.397Z,13.50
2019-05-18T02:32:51.040Z,13.60
2019-05-18T02:35:19.656Z,13.50
2019-05-18T02:37:48.309Z,13.50
2019-05-18T02:40:17.111Z,13.50
2019-05-18T02:42:45.693Z,13.50
2019-05-18T02:45:14.471Z,13.50
2019-05-18T02:47:43.044Z,13.50
2019-05-18T02:50:12.081Z,13.40
2019-05-18T02:52:40.743Z,13.50
2019-05-18T02:55:09.523Z,13.50
2019-05-18T02:57:38.160Z,13.50
2019-05-18T03:00:10.050Z,13.60
2019-05-18T03:02:38.670Z,13.50
2019-05-18T03:05:08.491Z,13.50
2019-05-18T03:07:37.245Z,13.50
2019-05-18T03:10:07.783Z,13.50
2019-05-18T03:12:36.547Z,13.50
2019-05-18T03:15:06.601Z,13.60
2019-05-18T03:17:35.664Z,13.60
2019-05-18T03:20:06.687Z,13.50
2019-05-18T03:22:35.260Z,13.60
2019-05-18T03:25:06.200Z,13.60
2019-05-18T03:27:34.887Z,13.60
2019-05-18T03:30:06.015Z,13.60
2019-05-18T03:32:34.842Z,13.60
2019-05-18T03:35:03.915Z,13.60
2019-05-18T03:37:33.067Z,13.60
2019-05-18T03:40:02.534Z,13.50
2019-05-18T03:42:31.829Z,13.60
2019-05-18T03:45:00.968Z,13.60
2019-05-18T03:47:30.052Z,13.60
2019-05-18T03:49:59.171Z,13.60
2019-05-18T03:52:28.198Z,13.60
2019-05-18T03:54:57.291Z,13.60
2019-05-18T03:57:26.431Z,13.60
2019-05-18T03:59:55.600Z,13.50
2019-05-18T04:02:24.831Z,13.50
2019-05-18T04:04:53.843Z,13.50
2019-05-18T04:07:23.327Z,13.50
2019-05-18T04:09:52.401Z,13.60
2019-05-18T04:12:21.692Z,13.60
2019-05-18T04:14:50.958Z,13.50
2019-05-18T04:17:20.105Z,13.50
2019-05-18T04:19:49.459Z,13.50
2019-05-18T04:22:18.733Z,13.40
2019-05-18T04:24:47.769Z,13.50
2019-05-18T04:27:16.895Z,13.50
2019-05-18T04:29:45.944Z,13.40
2019-05-18T04:32:15.269Z,13.40
2019-05-18T04:34:44.497Z,13.50
2019-05-18T04:37:13.640Z,13.50
2019-05-18T04:39:42.878Z,13.40
2019-05-18T04:42:12.114Z,13.40
2019-05-18T04:44:41.228Z,13.40
2019-05-18T04:47:10.391Z,13.40
2019-05-18T04:49:39.823Z,13.40
2019-05-18T04:52:09.124Z,13.50
2019-05-18T04:54:38.440Z,13.50
2019-05-18T04:57:07.742Z,13.50
2019-05-18T04:59:37.218Z,13.50
2019-05-18T05:02:06.412Z,13.50
2019-05-18T05:04:35.864Z,13.60
2019-05-18T05:07:05.160Z,13.60
2019-05-18T05:09:34.400Z,13.60
2019-05-18T05:12:03.735Z,13.60
2019-05-18T05:14:33.136Z,13.70
2019-05-18T05:17:02.179Z,13.70
2019-05-18T05:19:31.668Z,13.80
2019-05-18T05:22:01.063Z,13.80
2019-05-18T05:24:30.346Z,13.90
2019-05-18T05:26:59.748Z,14.00
2019-05-18T05:29:29.065Z,14.00
2019-05-18T05:31:58.250Z,14.00
2019-05-18T05:34:27.675Z,14.00
2019-05-18T05:36:57.089Z,14.00
2019-05-18T05:39:26.263Z,14.10
2019-05-18T05:41:55.669Z,14.10
2019-05-18T05:44:25.078Z,14.10
2019-05-18T05:46:54.262Z,14.20
2019-05-18T05:49:23.713Z,14.20
2019-05-18T05:51:52.961Z,14.30
2019-05-18T05:54:22.313Z,14.50
2019-05-18T05:56:51.670Z,14.40
2019-05-18T05:59:20.975Z,14.50
2019-05-18T06:01:50.279Z,14.50
2019-05-18T06:04:19.626Z,14.50
2019-05-18T06:06:48.880Z,14.50
2019-05-18T06:09:18.048Z,14.60
2019-05-18T06:11:47.519Z,14.70
2019-05-18T06:14:16.914Z,14.80
2019-05-18T06:16:46.039Z,14.80
2019-05-18T06:19:15.511Z,14.90
2019-05-18T06:21:44.699Z,14.90
2019-05-18T06:24:14.071Z,14.80
2019-05-18T06:26:43.416Z,14.90
2019-05-18T06:29:12.604Z,14.80
2019-05-18T06:31:41.941Z,14.80
2019-05-18T06:34:11.183Z,14.70
2019-05-18T06:36:40.570Z,14.60
2019-05-18T06:39:09.831Z,14.60
2019-05-18T06:41:39.978Z,14.80
2019-05-18T06:44:09.166Z,15.00
2019-05-18T06:46:38.383Z,15.20
2019-05-18T06:49:07.691Z,15.30
2019-05-18T06:51:36.842Z,15.50
2019-05-18T06:54:06.119Z,15.80
2019-05-18T06:56:35.480Z,16.10
2019-05-18T06:59:04.742Z,16.30
2019-05-18T07:01:34.007Z,16.50
2019-05-18T07:04:03.531Z,16.70
2019-05-18T07:06:32.743Z,16.70
2019-05-18T07:09:02.009Z,16.90
2019-05-18T07:11:31.499Z,17.10
2019-05-18T07:14:00.590Z,17.00
2019-05-18T07:16:30.126Z,16.90
2019-05-18T07:18:59.242Z,17.10
2019-05-18T07:21:28.662Z,17.40
2019-05-18T07:23:58.028Z,17.50
2019-05-18T07:26:27.542Z,17.50
2019-05-18T07:28:57.022Z,17.50
2019-05-18T07:31:26.365Z,17.50
2019-05-18T07:33:55.773Z,17.60
2019-05-18T07:36:25.055Z,17.50
2019-05-18T07:38:54.222Z,17.30
2019-05-18T07:41:23.689Z,17.40
2019-05-18T07:43:52.861Z,17.50
2019-05-18T07:46:22.361Z,17.60
2019-05-18T07:48:51.711Z,17.60
2019-05-18T07:51:21.012Z,17.70
2019-05-18T07:53:50.442Z,17.90
2019-05-18T07:56:19.744Z,18.00
2019-05-18T07:58:49.071Z,17.90
2019-05-18T08:01:18.339Z,17.80
2019-05-18T08:03:47.981Z,17.70
2019-05-18T08:06:17.179Z,17.80
2019-05-18T08:08:46.328Z,17.80
2019-05-18T08:11:15.753Z,17.90
2019-05-18T08:13:45.580Z,17.90
2019-05-18T08:16:14.747Z,18.10
2019-05-18T08:18:44.054Z,18.20
2019-05-18T08:21:13.513Z,18.30
2019-05-18T08:23:42.589Z,18.50
2019-05-18T08:26:11.917Z,18.90
2019-05-18T08:28:41.317Z,19.40
2019-05-18T08:31:10.638Z,19.80
2019-05-18T08:33:40.035Z,20.30
2019-05-18T08:36:09.166Z,20.70
2019-05-18T08:38:38.555Z,21.10
2019-05-18T08:41:07.809Z,21.10
2019-05-18T08:43:37.019Z,21.00
2019-05-18T08:46:06.447Z,21.10
2019-05-18T08:48:35.854Z,21.00
2019-05-18T08:51:05.111Z,20.70
2019-05-18T08:53:34.465Z,20.50
2019-05-18T08:56:03.741Z,20.30
2019-05-18T08:58:33.122Z,20.20
2019-05-18T09:01:02.556Z,20.10
2019-05-18T09:03:31.784Z,20.10
2019-05-18T09:06:00.986Z,19.90
2019-05-18T09:08:30.143Z,19.80
2019-05-18T09:10:59.232Z,19.70
2019-05-18T09:13:28.518Z,19.50
2019-05-18T09:15:57.898Z,19.60
2019-05-18T09:18:27.117Z,19.60
2019-05-18T09:20:56.506Z,19.70
2019-05-18T09:23:25.759Z,19.80
2019-05-18T09:25:55.150Z,19.90
2019-05-18T09:28:24.269Z,20.10
2019-05-18T09:30:53.703Z,20.50
2019-05-18T09:33:23.001Z,21.00
2019-05-18T09:35:52.067Z,21.90
2019-05-18T09:38:22.023Z,23.00
2019-05-18T09:40:51.563Z,23.60
2019-05-18T09:43:20.736Z,23.50
2019-05-18T09:45:50.072Z,23.10
2019-05-18T09:48:19.498Z,23.10
2019-05-18T09:50:48.785Z,22.90
2019-05-18T09:53:18.002Z,22.90
2019-05-18T09:55:47.366Z,23.40
2019-05-18T09:58:16.630Z,23.40
2019-05-18T10:00:46.048Z,23.40
2019-05-18T10:03:15.555Z,22.90
2019-05-18T10:05:44.795Z,22.90
2019-05-18T10:08:14.049Z,23.20
2019-05-18T10:10:43.431Z,23.90
2019-05-18T10:13:12.760Z,24.10
2019-05-18T10:15:42.189Z,24.20
2019-05-18T10:18:11.455Z,24.00
2019-05-18T10:20:40.646Z,23.80
2019-05-18T10:23:13.692Z,23.70
2019-05-18T10:25:40.916Z,23.70
2019-05-18T10:28:10.054Z,23.60
2019-05-18T10:30:39.271Z,23.80
2019-05-18T10:33:08.416Z,24.00
2019-05-18T10:35:37.615Z,23.80
2019-05-18T10:38:06.697Z,23.10
2019-05-18T10:40:35.952Z,22.40
2019-05-18T10:43:05.096Z,22.30
2019-05-18T10:45:34.596Z,22.70
2019-05-18T10:48:04.035Z,23.10
2019-05-18T10:50:33.378Z,23.50
2019-05-18T10:53:02.441Z,23.30
2019-05-18T10:55:31.895Z,23.30
2019-05-18T10:58:01.081Z,23.20
2019-05-18T11:00:30.442Z,23.10
2019-05-18T11:02:59.691Z,23.10
2019-05-18T11:05:29.132Z,22.90
2019-05-18T11:07:58.435Z,22.90
2019-05-18T11:10:27.790Z,22.70
2019-05-18T11:12:56.951Z,22.60
2019-05-18T11:15:26.411Z,22.70
2019-05-18T11:17:55.816Z,22.80
2019-05-18T11:20:25.128Z,22.50
2019-05-18T11:22:54.432Z,22.50
2019-05-18T11:25:23.741Z,22.40
2019-05-18T11:27:52.972Z,22.50
2019-05-18T11:30:22.735Z,22.50
2019-05-18T11:32:51.827Z,22.60
2019-05-18T11:35:21.012Z,22.70
2019-05-18T11:37:50.229Z,22.60
2019-05-18T11:40:19.640Z,22.60
2019-05-18T11:42:48.839Z,22.90
2019-05-18T11:45:19.018Z,22.90
2019-05-18T11:47:48.215Z,22.80
2019-05-18T11:50:17.980Z,22.60
2019-05-18T11:52:47.318Z,22.80
2019-05-18T11:55:16.783Z,23.10
2019-05-18T11:57:46.001Z,23.70
2019-05-18T12:00:16.209Z,24.40
2019-05-18T12:02:45.489Z,24.70
2019-05-18T12:05:15.984Z,24.90
2019-05-18T12:07:45.020Z,25.00
2019-05-18T12:10:14.539Z,24.80
2019-05-18T12:12:43.684Z,25.10
2019-05-18T12:15:14.662Z,25.20
2019-05-18T12:17:42.956Z,25.30
2019-05-18T12:20:13.467Z,25.30
2019-05-18T12:22:42.738Z,24.60
2019-05-18T12:25:12.198Z,24.20
2019-05-18T12:27:41.516Z,24.10
2019-05-18T12:30:11.935Z,24.00
2019-05-18T12:32:41.312Z,23.90
2019-05-18T12:35:10.744Z,23.80
2019-05-18T12:37:40.032Z,23.40
2019-05-18T12:40:10.054Z,23.60
2019-05-18T12:42:39.155Z,23.80
2019-05-18T12:45:10.307Z,23.90
2019-05-18T12:47:38.552Z,23.40
2019-05-18T12:50:08.879Z,23.20
2019-05-18T12:52:38.449Z,23.30
2019-05-18T12:55:08.047Z,23.30
2019-05-18T12:57:37.538Z,23.30
2019-05-18T13:00:12.142Z,22.70
2019-05-18T13:02:41.485Z,22.60
2019-05-18T13:05:10.861Z,22.50
2019-05-18T13:07:39.942Z,22.30
2019-05-18T13:10:11.409Z,22.30
2019-05-18T13:12:40.686Z,22.30
2019-05-18T13:15:12.100Z,22.20
2019-05-18T13:17:41.393Z,22.20
2019-05-18T13:20:12.107Z,22.20
2019-05-18T13:22:41.465Z,22.50
2019-05-18T13:25:11.465Z,22.60
2019-05-18T13:27:40.671Z,22.70
2019-05-18T13:30:12.186Z,22.70
2019-05-18T13:32:41.471Z,22.80
2019-05-18T13:35:11.447Z,23.10
2019-05-18T13:37:40.618Z,23.30
2019-05-18T13:40:10.186Z,23.60
2019-05-18T13:42:39.442Z,23.60
2019-05-18T13:45:10.165Z,23.70
2019-05-18T13:47:40.094Z,23.90
2019-05-18T13:50:09.581Z,24.00
2019-05-18T13:52:38.831Z,23.90
2019-05-18T13:55:08.483Z,23.80
2019-05-18T13:57:37.760Z,23.80
2019-05-18T14:00:08.729Z,23.80
2019-05-18T14:02:38.142Z,23.80
2019-05-18T14:05:09.059Z,23.80
2019-05-18T14:07:38.320Z,24.10
2019-05-18T14:10:12.655Z,24.20
2019-05-18T14:12:41.571Z,24.40
2019-05-18T14:15:12.184Z,24.20
2019-05-18T14:17:41.296Z,24.10
2019-05-18T14:20:10.907Z,24.10
2019-05-18T14:22:40.067Z,23.90
2019-05-18T14:25:19.501Z,24.00
2019-05-18T14:27:41.319Z,23.80
2019-05-18T14:30:10.858Z,23.80
2019-05-18T14:32:40.068Z,23.90
2019-05-18T14:35:09.619Z,24.10
2019-05-18T14:37:38.715Z,23.80
2019-05-18T14:40:08.695Z,23.70
2019-05-18T14:42:37.926Z,23.60
2019-05-18T14:45:09.053Z,23.40
2019-05-18T14:47:37.310Z,23.40
2019-05-18T14:50:07.714Z,23.40
2019-05-18T14:52:37.215Z,23.30
2019-05-18T14:55:06.894Z,23.40
2019-05-18T14:57:36.050Z,23.30
2019-05-18T15:00:07.201Z,23.40
2019-05-18T15:02:36.426Z,23.30
2019-05-18T15:05:09.994Z,23.30
2019-05-18T15:07:39.514Z,23.30
2019-05-18T15:10:10.931Z,23.50
2019-05-18T15:12:40.269Z,23.80
2019-05-18T15:15:10.338Z,24.20
2019-05-18T15:17:39.404Z,24.50
2019-05-18T15:20:09.169Z,24.60
2019-05-18T15:22:38.631Z,24.80
2019-05-18T15:25:08.105Z,24.70
2019-05-18T15:27:37.303Z,24.60
2019-05-18T15:30:07.986Z,24.20
2019-05-18T15:32:37.217Z,23.90
2019-05-18T15:35:08.802Z,24.00
2019-05-18T15:37:38.928Z,24.10
2019-05-18T15:40:08.671Z,23.90
2019-05-18T15:42:37.874Z,23.70
2019-05-18T15:45:07.625Z,23.60
2019-05-18T15:47:37.197Z,23.60
2019-05-18T15:50:09.388Z,23.50
2019-05-18T15:52:38.695Z,23.50
2019-05-18T15:55:09.318Z,23.60
2019-05-18T15:57:38.587Z,23.60
2019-05-18T16:00:09.222Z,23.70
2019-05-18T16:02:38.651Z,23.70
2019-05-18T16:05:08.821Z,23.60
2019-05-18T16:07:38.095Z,23.50
2019-05-18T16:10:09.932Z,23.40
2019-05-18T16:12:39.212Z,23.30
2019-05-18T16:15:08.694Z,23.30
2019-05-18T16:17:39.893Z,23.40
2019-05-18T16:20:08.746Z,23.40
2019-05-18T16:22:37.999Z,23.40
2019-05-18T16:25:08.048Z,23.30
2019-05-18T16:27:37.202Z,23.30
2019-05-18T16:30:08.351Z,23.40
2019-05-18T16:32:37.403Z,23.50
2019-05-18T16:35:08.698Z,23.40
2019-05-18T16:37:37.705Z,23.30
2019-05-18T16:40:08.342Z,23.30
2019-05-18T16:42:37.655Z,23.10
2019-05-18T16:45:08.730Z,23.10
2019-05-18T16:47:38.077Z,23.00
2019-05-18T16:50:08.911Z,22.90
2019-05-18T16:52:38.127Z,22.70
2019-05-18T16:55:09.161Z,22.70
2019-05-18T16:57:38.741Z,22.60
2019-05-18T17:00:10.941Z,22.40
2019-05-18T17:02:40.129Z,22.20
2019-05-18T17:05:09.517Z,22.10
2019-05-18T17:07:38.665Z,21.90
2019-05-18T17:10:08.657Z,21.80
2019-05-18T17:12:37.722Z,21.70
2019-05-18T17:15:10.231Z,21.60
2019-05-18T17:17:40.038Z,21.50
2019-05-18T17:20:09.824Z,21.40
2019-05-18T17:22:39.076Z,21.40
2019-05-18T17:25:08.401Z,21.30
2019-05-18T17:27:37.701Z,21.20
2019-05-18T17:30:08.109Z,21.20
2019-05-18T17:32:37.339Z,21.20
2019-05-18T17:35:07.414Z,21.20
2019-05-18T17:37:36.728Z,21.10
2019-05-18T17:40:07.213Z,21.10
2019-05-18T17:42:36.390Z,20.90
2019-05-18T17:45:07.611Z,20.90
2019-05-18T17:47:36.081Z,20.70
2019-05-18T17:50:10.072Z,20.60
2019-05-18T17:52:39.324Z,20.40
2019-05-18T17:55:09.388Z,20.30
2019-05-18T17:57:38.752Z,20.20
2019-05-18T18:00:09.413Z,20.20
2019-05-18T18:02:38.741Z,20.10
2019-05-18T18:05:09.289Z,20.10
2019-05-18T18:07:38.661Z,20.00
2019-05-18T18:10:08.674Z,19.80
2019-05-18T18:12:37.824Z,19.80
2019-05-18T18:15:08.117Z,19.70
2019-05-18T18:17:37.291Z,19.60
2019-05-18T18:20:07.347Z,19.50
2019-05-18T18:22:36.575Z,19.40
2019-05-18T18:25:07.179Z,19.40
2019-05-18T18:27:37.235Z,19.30
2019-05-18T18:30:08.740Z,19.30
2019-05-18T18:32:37.177Z,19.20
2019-05-18T18:35:07.408Z,19.10
2019-05-18T18:37:36.876Z,19.10
2019-05-18T18:40:07.338Z,19.00
2019-05-18T18:42:36.573Z,18.80
2019-05-18T18:45:09.079Z,18.70
2019-05-18T18:47:38.574Z,18.70
2019-05-18T18:50:08.687Z,18.70
2019-05-18T18:52:37.995Z,18.70
2019-05-18T18:55:08.550Z,18.60
2019-05-18T18:57:41.693Z,18.40
2019-05-18T19:00:09.063Z,18.30
2019-05-18T19:02:38.559Z,18.20
2019-05-18T19:05:08.114Z,18.20
2019-05-18T19:07:37.290Z,18.10
2019-05-18T19:10:08.100Z,17.90
2019-05-18T19:12:37.405Z,17.90
2019-05-18T19:15:10.501Z,17.90
2019-05-18T19:17:39.800Z,17.90
2019-05-18T19:20:09.492Z,17.90
2019-05-18T19:22:38.595Z,17.80
2019-05-18T19:25:08.141Z,17.70
2019-05-18T19:27:37.291Z,17.70
2019-05-18T19:30:10.280Z,17.60
2019-05-18T19:32:39.376Z,17.60
2019-05-18T19:35:08.519Z,17.60
2019-05-18T19:37:37.587Z,17.60
2019-05-18T19:40:07.923Z,17.60
2019-05-18T19:42:36.619Z,17.70
2019-05-18T19:45:06.992Z,17.80
2019-05-18T19:47:35.678Z,17.80
2019-05-18T19:50:06.139Z,17.80
2019-05-18T19:52:34.953Z,17.80
2019-05-18T19:55:04.663Z,17.90
2019-05-18T19:57:33.376Z,17.90
2019-05-18T20:00:02.264Z,17.80
2019-05-18T20:02:30.960Z,17.80
2019-05-18T20:05:07.188Z,17.80
2019-05-18T20:07:29.852Z,17.80
2019-05-18T20:09:58.523Z,17.70
2019-05-18T20:12:27.191Z,17.70
2019-05-18T20:14:55.856Z,17.70
2019-05-18T20:17:24.536Z,17.70
2019-05-18T20:19:53.162Z,17.70
2019-05-18T20:22:21.819Z,17.70
2019-05-18T20:24:50.374Z,17.60
2019-05-18T20:27:19.016Z,17.60
2019-05-18T20:29:47.766Z,17.60
2019-05-18T20:32:16.412Z,17.50
2019-05-18T20:34:45.144Z,17.50
2019-05-18T20:37:13.806Z,17.50
2019-05-18T20:39:42.414Z,17.50
2019-05-18T20:42:11.156Z,17.50
2019-05-18T20:44:39.818Z,17.40
2019-05-18T20:47:08.446Z,17.40
2019-05-18T20:49:37.158Z,17.40
2019-05-18T20:52:05.884Z,17.30
2019-05-18T20:54:34.491Z,17.20
2019-05-18T20:57:03.116Z,17.10
2019-05-18T20:59:31.700Z,17.10
2019-05-18T21:02:00.385Z,17.00
2019-05-18T21:04:29.101Z,16.90
2019-05-18T21:06:57.744Z,16.90
2019-05-18T21:09:26.419Z,16.80
2019-05-18T21:11:55.287Z,16.80
2019-05-18T21:14:24.045Z,16.70
2019-05-18T21:16:52.778Z,16.70
2019-05-18T21:19:21.665Z,16.60
2019-05-18T21:21:50.375Z,16.60
2019-05-18T21:24:19.098Z,16.60
2019-05-18T21:26:47.634Z,16.60
2019-05-18T21:29:16.297Z,16.50
2019-05-18T21:31:44.956Z,16.40
2019-05-18T21:34:13.560Z,16.40
2019-05-18T21:36:42.289Z,16.30
2019-05-18T21:39:10.928Z,16.20
2019-05-18T21:41:39.682Z,16.10
2019-05-18T21:44:08.391Z,16.00
2019-05-18T21:46:39.083Z,15.90
2019-05-18T21:49:07.445Z,15.90
2019-05-18T21:51:36.181Z,15.90
2019-05-18T21:54:05.030Z,15.90
2019-05-18T21:56:33.745Z,15.80
2019-05-18T21:59:11.315Z,15.80
2019-05-18T22:01:32.877Z,15.80
2019-05-18T22:04:01.570Z,15.80
2019-05-18T22:06:30.287Z,15.80
2019-05-18T22:08:59.029Z,15.80
2019-05-18T22:11:27.709Z,15.70
2019-05-18T22:13:56.463Z,15.70
2019-05-18T22:16:25.181Z,15.70
2019-05-18T22:18:53.813Z,15.70
2019-05-18T22:21:22.408Z,15.70
2019-05-18T22:23:51.028Z,15.60
2019-05-18T22:26:19.633Z,15.60
2019-05-18T22:28:48.345Z,15.60
2019-05-18T22:31:19.586Z,15.60
2019-05-18T22:33:47.448Z,15.60
2019-05-18T22:36:16.064Z,15.60
2019-05-18T22:38:44.813Z,15.70
2019-05-18T22:41:13.495Z,15.70
2019-05-18T22:43:42.215Z,15.70
2019-05-18T22:46:10.930Z,15.70
2019-05-18T22:48:41.574Z,15.70
2019-05-18T22:51:09.821Z,15.70
2019-05-18T22:53:38.478Z,15.80
2019-05-18T22:56:07.143Z,15.70
2019-05-18T22:58:35.806Z,15.70
2019-05-18T23:01:04.713Z,15.70
2019-05-18T23:03:33.395Z,15.80
2019-05-18T23:06:02.085Z,15.80
2019-05-18T23:08:30.739Z,15.70
2019-05-18T23:10:59.429Z,15.80
2019-05-18T23:13:28.167Z,15.70
2019-05-18T23:15:56.883Z,15.70
2019-05-18T23:18:25.550Z,15.70
2019-05-18T23:20:54.162Z,15.70
2019-05-18T23:23:22.914Z,15.70
2019-05-18T23:25:54.558Z,15.60
2019-05-18T23:28:23.275Z,15.50
2019-05-18T23:30:51.810Z,15.50
2019-05-18T23:33:20.497Z,15.50
2019-05-18T23:35:49.171Z,15.60
2019-05-18T23:38:17.865Z,15.60
2019-05-18T23:40:46.556Z,15.60
2019-05-18T23:43:15.223Z,15.60
2019-05-18T23:45:44.045Z,15.60
2019-05-18T23:48:12.837Z,15.50
2019-05-18T23:50:41.472Z,15.50
2019-05-18T23:53:10.105Z,15.40
2019-05-18T23:55:38.753Z,15.40
2019-05-18T23:58:07.425Z,15.40
